Time;durP1;ratioP1;P1;durP2;ratioP2;P2;SDS_P1;SDS_P2;PMS_P1;PMS_P2;Temp;Humidity;BMP_temperature;BMP_pressure;BME280_temperature;BME280_humidity;BME280_pressure;Samples;Min_cycle;Max_cycle;Signal;HPM_P1;HPM_P2
2023/09/24 00:01:17;;;;;;;2.67;1.77;;;9.70;99.90;;;;;;5041534;28;20198;-83
2023/09/24 00:03:44;;;;;;;3.83;2.20;;;9.70;99.90;;;;;;5041403;28;20220;-84
2023/09/24 00:06:10;;;;;;;2.27;1.83;;;9.80;99.90;;;;;;5040123;28;20276;-84
2023/09/24 00:08:36;;;;;;;2.63;1.80;;;9.70;99.90;;;;;;5041502;28;20255;-83
2023/09/24 00:11:02;;;;;;;2.53;1.80;;;9.60;99.90;;;;;;5042054;28;20228;-83
2023/09/24 00:13:35;;;;;;;2.10;1.70;;;9.60;99.90;;;;;;5045414;28;20190;-83
2023/09/24 00:16:09;;;;;;;3.33;1.77;;;9.60;99.90;;;;;;5040555;28;20518;-83
2023/09/24 00:18:36;;;;;;;2.57;1.77;;;9.60;99.90;;;;;;5042538;28;20194;-83
2023/09/24 00:21:03;;;;;;;3.73;1.90;;;9.70;99.90;;;;;;5040736;28;20171;-83
2023/09/24 00:23:29;;;;;;;2.40;1.60;;;9.80;99.90;;;;;;5041494;28;20170;-86
2023/09/24 00:25:58;;;;;;;4.60;2.07;;;10.00;99.90;;;;;;5044228;28;20216;-86
2023/09/24 00:28:24;;;;;;;2.17;1.80;;;10.10;99.90;;;;;;5038035;28;20191;-83
2023/09/24 00:30:52;;;;;;;2.43;1.83;;;10.20;99.90;;;;;;5039433;28;20174;-83
2023/09/24 00:33:18;;;;;;;3.07;1.80;;;10.20;99.90;;;;;;5039203;28;20304;-83
2023/09/24 00:35:44;;;;;;;3.30;1.83;;;10.20;99.90;;;;;;5054133;28;20272;-83
2023/09/24 00:38:09;;;;;;;2.57;1.87;;;10.10;99.90;;;;;;5087470;23;20226;-81
2023/09/24 00:40:35;;;;;;;2.93;2.00;;;10.10;99.90;;;;;;5015354;28;20186;-81
2023/09/24 00:43:01;;;;;;;2.00;1.80;;;10.00;99.90;;;;;;5015575;28;20719;-81
2023/09/24 00:45:26;;;;;;;2.37;1.90;;;10.10;99.90;;;;;;5015565;28;20174;-81
2023/09/24 00:47:54;;;;;;;5.27;2.10;;;10.00;99.90;;;;;;5015446;28;20201;-81
2023/09/24 00:50:21;;;;;;;2.83;2.03;;;9.90;99.90;;;;;;5015651;28;20188;-81
2023/09/24 00:52:49;;;;;;;3.93;1.93;;;10.00;99.90;;;;;;5015642;28;20218;-81
2023/09/24 00:55:16;;;;;;;2.33;2.03;;;9.90;99.90;;;;;;5014035;28;20629;-82
2023/09/24 00:57:46;;;;;;;2.50;1.97;;;9.80;99.90;;;;;;5015406;28;20172;-81
2023/09/24 01:00:19;;;;;;;2.50;1.97;;;9.80;99.90;;;;;;5013890;28;20186;-82
2023/09/24 01:02:48;;;;;;;3.47;1.90;;;9.70;99.90;;;;;;5013745;28;20171;-81
2023/09/24 01:05:15;;;;;;;3.13;2.00;;;9.70;99.90;;;;;;5015280;28;20179;-81
2023/09/24 01:07:42;;;;;;;2.40;1.70;;;9.70;99.90;;;;;;5015375;28;20626;-81
2023/09/24 01:10:09;;;;;;;1.97;1.73;;;9.80;99.90;;;;;;5015430;28;20185;-81
2023/09/24 01:12:34;;;;;;;1.73;1.57;;;9.80;99.90;;;;;;5014852;28;20254;-81
2023/09/24 01:15:00;;;;;;;2.83;1.87;;;9.80;99.90;;;;;;5013886;28;20277;-82
2023/09/24 01:17:26;;;;;;;2.70;1.80;;;9.70;99.90;;;;;;5014914;28;20171;-81
2023/09/24 01:19:55;;;;;;;2.33;1.87;;;9.70;99.90;;;;;;5015236;28;20239;-81
2023/09/24 01:22:21;;;;;;;2.77;1.90;;;9.70;99.90;;;;;;5014615;28;20171;-82
2023/09/24 01:24:47;;;;;;;1.97;1.70;;;9.70;99.90;;;;;;5014677;28;20207;-82
2023/09/24 01:27:13;;;;;;;1.97;1.73;;;9.80;99.90;;;;;;5014527;28;20221;-81
2023/09/24 01:29:39;;;;;;;2.50;1.70;;;9.70;99.90;;;;;;5030188;28;20198;-81
2023/09/24 01:32:06;;;;;;;2.20;1.83;;;9.60;99.90;;;;;;5014786;28;20172;-82
2023/09/24 01:34:32;;;;;;;4.63;1.87;;;9.70;99.90;;;;;;5013540;28;20202;-82
2023/09/24 01:36:58;;;;;;;1.67;1.50;;;9.70;99.90;;;;;;5013200;28;20182;-81
2023/09/24 01:39:27;;;;;;;2.80;1.70;;;9.60;99.90;;;;;;5014443;28;20214;-82
2023/09/24 01:41:52;;;;;;;2.00;1.67;;;9.60;99.90;;;;;;5014267;28;20523;-81
2023/09/24 01:44:21;;;;;;;2.53;1.57;;;9.60;99.90;;;;;;5013351;28;20222;-81
2023/09/24 01:46:47;;;;;;;1.97;1.60;;;9.60;99.90;;;;;;5013120;28;20236;-81
2023/09/24 01:49:13;;;;;;;1.90;1.57;;;9.60;99.90;;;;;;5014498;28;20210;-82
2023/09/24 01:51:39;;;;;;;2.90;1.53;;;9.50;99.90;;;;;;5013163;28;20201;-81
2023/09/24 01:54:05;;;;;;;3.67;1.70;;;9.60;99.90;;;;;;5012748;28;20199;-81
2023/09/24 01:56:31;;;;;;;2.47;1.60;;;9.60;99.90;;;;;;5012954;28;20175;-81
2023/09/24 01:58:59;;;;;;;3.03;1.63;;;9.60;99.90;;;;;;5013926;28;20191;-81
2023/09/24 02:01:24;;;;;;;3.10;1.80;;;9.60;99.90;;;;;;5014140;28;20254;-81
2023/09/24 02:03:50;;;;;;;2.60;1.70;;;9.50;99.90;;;;;;5012598;28;20265;-81
2023/09/24 02:06:16;;;;;;;2.13;1.60;;;9.50;99.90;;;;;;5014014;28;20682;-81
2023/09/24 02:08:41;;;;;;;2.40;1.73;;;9.50;99.90;;;;;;5012664;28;20576;-81
2023/09/24 02:11:07;;;;;;;2.93;1.73;;;9.60;99.90;;;;;;5012465;28;20229;-82
2023/09/24 02:13:32;;;;;;;2.67;1.90;;;9.60;99.90;;;;;;5012400;28;20298;-81
2023/09/24 02:16:01;;;;;;;2.77;1.60;;;9.60;99.90;;;;;;5012472;28;20170;-82
2023/09/24 02:18:32;;;;;;;1.80;1.60;;;9.60;99.90;;;;;;5014096;28;20627;-81
2023/09/24 02:20:59;;;;;;;1.70;1.60;;;9.50;99.90;;;;;;5013863;28;20207;-81
2023/09/24 02:23:25;;;;;;;1.73;1.40;;;9.50;99.90;;;;;;5012396;28;20178;-81
2023/09/24 02:25:51;;;;;;;4.27;1.47;;;9.40;99.90;;;;;;5013470;28;20256;-81
2023/09/24 02:28:18;;;;;;;1.67;1.53;;;9.30;99.90;;;;;;5013635;28;20199;-82
2023/09/24 02:30:44;;;;;;;2.60;1.77;;;9.40;99.90;;;;;;5013401;28;20183;-81
2023/09/24 02:33:10;;;;;;;2.00;1.53;;;9.30;99.90;;;;;;5012336;28;20182;-81
2023/09/24 02:35:36;;;;;;;2.70;1.70;;;9.30;99.90;;;;;;5013431;28;20210;-81
2023/09/24 02:38:02;;;;;;;2.20;1.70;;;9.40;99.90;;;;;;5012042;28;20216;-81
2023/09/24 02:40:28;;;;;;;3.13;1.60;;;9.50;99.90;;;;;;5013284;28;20552;-81
2023/09/24 02:42:58;;;;;;;1.97;1.70;;;9.50;99.90;;;;;;5013521;28;20179;-81
2023/09/24 02:45:26;;;;;;;2.00;1.70;;;9.50;99.90;;;;;;5012202;28;20186;-81
2023/09/24 02:47:52;;;;;;;3.33;1.73;;;9.60;99.90;;;;;;5011991;28;20199;-81
2023/09/24 02:50:24;;;;;;;2.17;1.60;;;9.60;99.90;;;;;;5012096;28;20181;-82
2023/09/24 02:52:54;;;;;;;1.97;1.50;;;9.50;99.90;;;;;;5013306;28;20261;-81
2023/09/24 02:55:22;;;;;;;2.30;1.80;;;9.60;99.90;;;;;;5011931;28;20194;-81
2023/09/24 02:57:50;;;;;;;2.40;1.60;;;9.60;99.90;;;;;;5011984;28;20206;-81
2023/09/24 03:00:19;;;;;;;3.40;1.70;;;9.60;99.90;;;;;;5013230;28;20178;-81
2023/09/24 03:02:45;;;;;;;3.27;1.80;;;9.60;99.90;;;;;;5011703;28;20199;-81
2023/09/24 03:05:12;;;;;;;2.73;1.80;;;9.50;99.90;;;;;;5013372;28;20232;-81
2023/09/24 03:07:40;;;;;;;2.07;1.63;;;9.40;99.90;;;;;;5012968;28;20190;-81
2023/09/24 03:10:07;;;;;;;2.53;1.80;;;9.30;99.90;;;;;;5012995;28;20215;-81
2023/09/24 03:12:34;;;;;;;3.10;1.70;;;9.30;99.90;;;;;;5012873;28;20186;-81
2023/09/24 03:15:01;;;;;;;2.37;1.70;;;9.30;99.90;;;;;;5012996;28;20198;-83
2023/09/24 03:17:27;;;;;;;3.43;1.93;;;9.20;99.90;;;;;;5016986;28;20170;-81
2023/09/24 03:19:52;;;;;;;1.83;1.60;;;9.10;99.90;;;;;;5015871;28;20175;-81
2023/09/24 03:22:18;;;;;;;3.07;1.80;;;9.00;99.90;;;;;;5015543;28;20175;-81
2023/09/24 03:24:44;;;;;;;2.63;1.80;;;9.00;99.90;;;;;;5017205;28;20189;-81
2023/09/24 03:27:09;;;;;;;1.83;1.57;;;9.00;99.90;;;;;;5015802;28;20185;-81
2023/09/24 03:29:35;;;;;;;2.97;1.60;;;8.90;99.90;;;;;;5016976;28;20199;-81
2023/09/24 03:32:00;;;;;;;2.47;1.43;;;8.90;99.90;;;;;;5015335;28;20183;-81
2023/09/24 03:34:26;;;;;;;2.40;1.50;;;9.00;99.90;;;;;;5015617;28;20209;-82
2023/09/24 03:36:51;;;;;;;2.27;1.60;;;9.00;99.90;;;;;;5015435;28;20171;-81
2023/09/24 03:39:17;;;;;;;1.77;1.40;;;9.00;99.90;;;;;;5015304;28;20207;-81
2023/09/24 03:41:43;;;;;;;1.97;1.60;;;8.90;99.90;;;;;;5016245;28;20167;-81
2023/09/24 03:44:09;;;;;;;2.53;1.70;;;9.00;99.90;;;;;;5016707;28;20171;-81
2023/09/24 03:46:34;;;;;;;2.63;1.60;;;9.10;99.90;;;;;;5016531;28;20182;-81
2023/09/24 03:49:00;;;;;;;1.53;1.40;;;9.00;99.90;;;;;;5016279;28;20235;-81
2023/09/24 03:51:25;;;;;;;2.00;1.67;;;8.90;99.90;;;;;;5016126;28;20175;-81
2023/09/24 03:53:51;;;;;;;2.23;1.60;;;8.90;99.90;;;;;;5016675;28;20612;-81
2023/09/24 03:56:17;;;;;;;1.70;1.60;;;8.90;99.90;;;;;;5016404;28;20224;-82
2023/09/24 03:58:42;;;;;;;1.87;1.50;;;9.00;99.90;;;;;;5015083;28;20195;-81
2023/09/24 04:01:09;;;;;;;2.60;1.47;;;8.90;99.90;;;;;;5016343;28;20183;-81
2023/09/24 04:03:35;;;;;;;1.80;1.60;;;8.90;99.90;;;;;;5016565;28;20195;-82
2023/09/24 04:06:07;;;;;;;2.40;1.60;;;8.90;99.90;;;;;;5015077;28;20213;-82
2023/09/24 04:08:32;;;;;;;6.27;1.77;;;8.70;99.90;;;;;;5016114;28;20206;-81
2023/09/24 04:10:58;;;;;;;2.90;1.90;;;8.50;99.90;;;;;;5014920;28;20647;-81
2023/09/24 04:13:23;;;;;;;2.30;1.60;;;8.60;99.90;;;;;;5016028;28;20177;-81
2023/09/24 04:15:52;;;;;;;1.70;1.60;;;8.70;99.90;;;;;;5016140;28;20191;-82
2023/09/24 04:18:18;;;;;;;3.30;1.73;;;8.70;99.90;;;;;;5015815;28;20190;-81
2023/09/24 04:20:44;;;;;;;1.93;1.60;;;8.60;99.90;;;;;;5014377;28;20175;-81
2023/09/24 04:23:11;;;;;;;2.03;1.70;;;8.70;99.90;;;;;;5015924;28;20313;-82
2023/09/24 04:25:37;;;;;;;1.97;1.70;;;8.70;99.90;;;;;;5016090;28;20190;-82
2023/09/24 04:28:04;;;;;;;2.47;1.63;;;8.80;99.90;;;;;;5015308;28;20282;-81
2023/09/24 04:30:29;;;;;;;2.23;1.70;;;8.80;99.90;;;;;;5015466;28;20651;-81
2023/09/24 04:32:57;;;;;;;1.70;1.60;;;8.80;99.90;;;;;;5014575;28;20182;-81
2023/09/24 04:35:23;;;;;;;2.50;1.43;;;8.80;99.90;;;;;;5015493;28;20191;-81
2023/09/24 04:37:50;;;;;;;2.50;1.60;;;8.70;99.90;;;;;;5015420;28;20313;-81
2023/09/24 04:40:16;;;;;;;5.67;1.73;;;8.60;99.90;;;;;;5015767;28;20188;-81
2023/09/24 04:42:43;;;;;;;2.30;1.43;;;8.50;99.90;;;;;;5015364;28;20209;-82
2023/09/24 04:45:12;;;;;;;3.13;1.63;;;8.60;99.90;;;;;;5015814;28;20214;-81
2023/09/24 04:47:39;;;;;;;1.90;1.43;;;8.60;99.90;;;;;;5014153;28;20266;-81
2023/09/24 04:50:07;;;;;;;2.20;1.30;;;8.70;99.90;;;;;;5015359;28;20209;-81
2023/09/24 04:52:33;;;;;;;2.03;1.30;;;8.70;99.90;;;;;;5013918;28;20249;-81
2023/09/24 04:54:59;;;;;;;1.60;1.50;;;8.60;99.90;;;;;;5014212;28;20213;-82
2023/09/24 04:57:25;;;;;;;1.93;1.50;;;8.40;99.90;;;;;;5013691;28;20171;-81
2023/09/24 04:59:53;;;;;;;1.73;1.60;;;8.30;99.90;;;;;;5013523;28;20197;-81
2023/09/24 05:02:20;;;;;;;1.80;1.50;;;8.20;99.90;;;;;;5013579;28;20260;-82
2023/09/24 05:04:47;;;;;;;1.70;1.40;;;8.30;99.90;;;;;;5030084;28;20582;-81
2023/09/24 05:07:13;;;;;;;3.40;1.37;;;8.30;99.90;;;;;;5030015;28;20217;-81
2023/09/24 05:09:39;;;;;;;1.87;1.43;;;8.40;99.90;;;;;;5014690;28;20233;-81
2023/09/24 05:12:04;;;;;;;2.53;1.60;;;8.40;99.90;;;;;;5013282;28;20175;-81
2023/09/24 05:14:30;;;;;;;2.40;1.40;;;8.30;99.90;;;;;;5013172;28;20202;-81
2023/09/24 05:16:55;;;;;;;3.03;1.40;;;8.30;99.90;;;;;;5014627;28;20244;-82
2023/09/24 05:19:21;;;;;;;2.40;1.60;;;8.30;99.90;;;;;;5014393;28;20195;-82
2023/09/24 05:21:46;;;;;;;2.13;1.50;;;8.20;99.90;;;;;;5029545;28;20178;-82
2023/09/24 05:24:12;;;;;;;2.10;1.30;;;8.20;99.90;;;;;;5014370;28;20171;-81
2023/09/24 05:26:38;;;;;;;1.53;1.40;;;8.10;99.90;;;;;;5013054;28;20218;-81
2023/09/24 05:29:03;;;;;;;1.73;1.40;;;8.10;99.90;;;;;;5014123;28;20195;-82
2023/09/24 05:31:29;;;;;;;1.70;1.60;;;8.10;99.90;;;;;;5014128;28;20182;-81
2023/09/24 05:33:54;;;;;;;2.37;1.57;;;8.20;99.90;;;;;;5014412;28;20211;-81
2023/09/24 05:36:22;;;;;;;2.03;1.67;;;8.30;99.90;;;;;;5012915;28;20189;-82
2023/09/24 05:38:48;;;;;;;2.70;1.97;;;8.40;99.90;;;;;;5012230;28;20211;-82
2023/09/24 05:41:14;;;;;;;2.07;1.80;;;8.40;99.90;;;;;;5013180;28;20533;-82
2023/09/24 05:43:44;;;;;;;2.70;2.07;;;8.50;99.90;;;;;;5012883;28;20636;-81
2023/09/24 05:46:14;;;;;;;2.17;1.70;;;8.50;99.90;;;;;;5014124;28;20243;-82
2023/09/24 05:48:39;;;;;;;1.90;1.60;;;8.60;99.90;;;;;;5013213;28;20199;-82
2023/09/24 05:51:05;;;;;;;2.37;1.90;;;8.60;99.90;;;;;;5014155;28;20171;-81
2023/09/24 05:53:32;;;;;;;2.33;2.07;;;8.70;99.90;;;;;;5013935;28;20179;-82
2023/09/24 05:55:57;;;;;;;2.77;2.10;;;8.70;99.90;;;;;;5013857;28;20213;-81
2023/09/24 05:58:23;;;;;;;2.63;2.03;;;8.80;99.90;;;;;;5014207;28;20202;-81
2023/09/24 06:00:50;;;;;;;3.60;2.37;;;8.80;99.90;;;;;;5012985;28;20557;-83
2023/09/24 06:03:15;;;;;;;3.90;2.40;;;8.70;99.90;;;;;;5014082;28;20167;-82
2023/09/24 06:05:41;;;;;;;2.80;2.40;;;8.70;99.90;;;;;;5012993;28;20240;-82
2023/09/24 06:08:07;;;;;;;2.80;2.30;;;8.70;99.90;;;;;;5013342;28;20191;-83
2023/09/24 06:10:34;;;;;;;3.30;2.40;;;8.80;99.90;;;;;;5011994;28;20197;-81
2023/09/24 06:13:03;;;;;;;2.37;2.17;;;8.70;99.90;;;;;;5013216;28;20616;-84
2023/09/24 06:15:29;;;;;;;2.63;2.07;;;8.70;99.90;;;;;;5012094;28;20206;-83
2023/09/24 06:17:55;;;;;;;3.17;2.27;;;8.80;99.90;;;;;;5013844;28;20205;-80
2023/09/24 06:20:21;;;;;;;2.17;1.97;;;8.80;99.90;;;;;;5012548;28;20175;-80
2023/09/24 06:22:53;;;;;;;2.93;2.13;;;8.90;99.90;;;;;;5012229;28;20244;-83
2023/09/24 06:25:19;;;;;;;2.47;2.17;;;8.90;99.90;;;;;;5014256;28;20658;-83
2023/09/24 06:27:46;;;;;;;3.07;2.30;;;8.90;99.90;;;;;;5013702;28;20304;-82
2023/09/24 06:30:12;;;;;;;3.20;2.03;;;8.90;99.90;;;;;;5013668;28;20175;-83
2023/09/24 06:32:38;;;;;;;3.40;2.30;;;8.90;99.90;;;;;;5012679;28;20175;-81
2023/09/24 06:35:04;;;;;;;6.70;2.40;;;9.00;99.90;;;;;;5013936;28;20293;-80
2023/09/24 06:37:30;;;;;;;3.27;2.20;;;9.20;99.90;;;;;;5015455;28;20543;-79
2023/09/24 06:39:56;;;;;;;3.47;2.00;;;9.70;99.90;;;;;;5015662;28;20186;-80
2023/09/24 06:42:22;;;;;;;2.60;2.00;;;10.10;99.90;;;;;;5014744;28;20175;-81
2023/09/24 06:44:49;;;;;;;3.30;2.07;;;10.50;99.90;;;;;;5012994;28;20182;-81
2023/09/24 06:47:14;;;;;;;6.17;2.33;;;10.40;99.90;;;;;;5012869;28;20178;-81
2023/09/24 06:49:40;;;;;;;3.10;2.20;;;10.20;99.90;;;;;;5014195;28;20199;-81
2023/09/24 06:52:06;;;;;;;3.77;2.20;;;10.10;99.90;;;;;;5013985;28;20261;-81
2023/09/24 06:54:34;;;;;;;3.83;2.57;;;9.90;99.90;;;;;;5013376;28;20567;-81
2023/09/24 06:57:00;;;;;;;3.40;2.40;;;9.90;99.90;;;;;;5013113;28;20171;-81
2023/09/24 06:59:26;;;;;;;2.80;2.60;;;9.90;99.90;;;;;;5010096;28;20199;-80
2023/09/24 07:01:54;;;;;;;2.80;2.53;;;10.00;99.90;;;;;;5011819;28;20558;-82
2023/09/24 07:04:20;;;;;;;3.33;2.67;;;10.00;99.90;;;;;;5012064;28;20179;-81
2023/09/24 07:06:46;;;;;;;3.73;2.60;;;9.90;99.90;;;;;;5012565;28;20175;-82
2023/09/24 07:09:12;;;;;;;2.67;2.43;;;9.90;99.90;;;;;;5000996;28;20191;-82
2023/09/24 07:11:38;;;;;;;3.80;2.67;;;9.90;99.90;;;;;;4993698;28;20188;-81
2023/09/24 07:14:05;;;;;;;3.33;2.47;;;9.90;99.90;;;;;;4991991;28;20641;-83
2023/09/24 07:16:31;;;;;;;4.63;2.77;;;10.00;99.90;;;;;;4999474;28;20175;-81
2023/09/24 07:18:58;;;;;;;3.17;2.60;;;10.10;99.90;;;;;;5011920;28;20225;-82
2023/09/24 07:21:26;;;;;;;4.53;2.83;;;10.20;99.90;;;;;;5012910;28;20171;-81
2023/09/24 07:23:55;;;;;;;3.73;2.90;;;10.30;99.90;;;;;;5012201;28;20262;-79
2023/09/24 07:26:22;;;;;;;3.93;3.00;;;10.40;99.90;;;;;;5011382;28;20207;-80
2023/09/24 07:28:49;;;;;;;4.17;2.97;;;10.50;99.90;;;;;;5010991;28;20196;-82
2023/09/24 07:31:21;;;;;;;3.70;2.97;;;10.60;99.90;;;;;;4999476;28;20172;-83
2023/09/24 07:33:51;;;;;;;3.90;3.20;;;10.80;99.90;;;;;;5002149;28;20171;-82
2023/09/24 07:36:17;;;;;;;3.73;2.77;;;10.90;99.90;;;;;;5010944;28;20172;-83
2023/09/24 07:38:43;;;;;;;3.73;3.00;;;11.10;99.90;;;;;;5012056;28;20260;-82
2023/09/24 07:41:09;;;;;;;6.63;3.30;;;11.20;99.90;;;;;;5011388;28;20203;-83
2023/09/24 07:43:36;;;;;;;4.20;2.90;;;11.40;99.90;;;;;;5007188;28;20266;-83
2023/09/24 07:46:02;;;;;;;3.50;3.03;;;11.50;99.90;;;;;;4992970;28;20180;-82
2023/09/24 07:48:28;;;;;;;3.80;2.83;;;11.50;99.90;;;;;;4993025;28;20698;-83
2023/09/24 07:50:55;;;;;;;4.77;2.70;;;11.80;99.90;;;;;;5002537;28;20190;-83
2023/09/24 07:53:24;;;;;;;3.73;3.00;;;12.00;99.90;;;;;;5010855;28;20685;-83
2023/09/24 07:56:07;;;;;;;3.90;2.60;;;12.10;99.90;;;;;;5011877;28;20206;-83
2023/09/24 07:58:38;;;;;;;3.90;2.60;;;12.30;99.90;;;;;;5010563;28;20198;-83
2023/09/24 08:01:12;;;;;;;5.87;3.03;;;12.50;99.90;;;;;;5011218;28;20663;-83
2023/09/24 08:03:38;;;;;;;5.40;2.83;;;12.60;99.90;;;;;;5014433;28;20171;-84
2023/09/24 08:06:05;;;;;;;5.10;3.03;;;12.80;99.90;;;;;;5014054;28;20179;-83
2023/09/24 08:08:34;;;;;;;4.63;3.00;;;12.90;99.90;;;;;;5014485;28;20738;-82
2023/09/24 08:11:00;;;;;;;4.00;2.83;;;13.10;99.90;;;;;;5015363;28;20187;-82
2023/09/24 08:13:25;;;;;;;5.23;2.90;;;13.20;99.90;;;;;;5014471;28;20183;-83
2023/09/24 08:15:51;;;;;;;3.93;2.50;;;13.30;99.90;;;;;;5015520;28;20285;-83
2023/09/24 08:18:17;;;;;;;3.77;2.70;;;13.50;99.90;;;;;;5014146;28;20191;-83
2023/09/24 08:20:44;;;;;;;3.87;2.80;;;13.60;99.90;;;;;;5014237;28;20199;-82
2023/09/24 08:23:10;;;;;;;3.23;2.60;;;13.70;99.90;;;;;;5014096;28;20167;-84
2023/09/24 08:25:39;;;;;;;7.17;2.70;;;13.90;49.90;;;;;;5015550;28;20257;-84
2023/09/24 08:28:05;;;;;;;3.30;3.00;;;14.10;38.80;;;;;;5013830;28;20199;-83
2023/09/24 08:30:31;;;;;;;4.50;2.73;;;14.20;68.10;;;;;;5013789;28;20181;-80
2023/09/24 08:32:57;;;;;;;3.60;2.90;;;14.30;32.50;;;;;;5014934;28;20163;-82
2023/09/24 08:35:23;;;;;;;4.00;2.70;;;14.50;99.90;;;;;;5014096;28;20203;-83
2023/09/24 08:37:49;;;;;;;4.73;2.97;;;14.60;1.00;;;;;;5011304;28;20194;-83
2023/09/24 08:40:18;;;;;;;3.33;2.80;;;14.70;1.00;;;;;;5014459;28;20209;-83
2023/09/24 08:42:48;;;;;;;4.33;2.77;;;14.90;26.80;;;;;;5014798;28;20204;-82
2023/09/24 08:45:15;;;;;;;4.33;2.73;;;15.00;1.00;;;;;;5014695;28;20199;-83
2023/09/24 08:47:42;;;;;;;3.70;2.43;;;15.10;1.00;;;;;;5015307;28;20171;-83
2023/09/24 08:50:09;;;;;;;4.13;3.00;;;15.30;1.00;;;;;;5013831;28;20186;-83
2023/09/24 08:52:36;;;;;;;4.20;3.10;;;15.40;1.00;;;;;;5013833;28;20218;-83
2023/09/24 08:55:07;;;;;;;3.53;2.77;;;15.50;99.90;;;;;;5013502;28;20198;-83
2023/09/24 08:57:34;;;;;;;4.83;2.90;;;15.50;1.00;;;;;;5013753;28;20206;-83
2023/09/24 08:59:59;;;;;;;5.00;2.90;;;15.60;1.00;;;;;;5013530;28;20170;-83
2023/09/24 09:02:25;;;;;;;3.27;2.97;;;15.80;1.00;;;;;;5013572;28;20309;-85
2023/09/24 09:04:51;;;;;;;4.30;3.17;;;16.00;99.90;;;;;;5014140;28;20223;-82
2023/09/24 09:07:16;;;;;;;5.47;3.10;;;15.80;1.00;;;;;;5014105;28;20170;-83
2023/09/24 09:09:55;;;;;;;3.53;3.00;;;15.90;1.00;;;;;;5015052;28;20191;-82
2023/09/24 09:12:22;;;;;;;3.87;3.10;;;16.10;1.00;;;;;;5013131;28;20178;-83
2023/09/24 09:14:48;;;;;;;4.20;2.93;;;16.20;1.00;;;;;;5013869;28;20580;-83
2023/09/24 09:17:14;;;;;;;3.50;2.87;;;16.20;99.90;;;;;;5014658;28;20175;-83
2023/09/24 09:19:51;;;;;;;4.00;2.83;;;16.20;1.00;;;;;;5013018;28;20197;-84
2023/09/24 09:22:21;;;;;;;4.77;2.93;;;16.30;99.90;;;;;;5014360;28;20182;-83
2023/09/24 09:24:48;;;;;;;5.60;2.93;;;16.40;1.00;;;;;;5013240;28;20180;-82
2023/09/24 09:27:14;;;;;;;3.63;2.80;;;16.60;99.90;;;;;;5013130;28;20167;-83
2023/09/24 09:29:40;;;;;;;3.73;2.73;;;16.60;99.90;;;;;;5014184;28;20187;-84
2023/09/24 09:32:05;;;;;;;3.00;2.50;;;16.70;1.00;;;;;;5013159;28;20209;-83
2023/09/24 09:34:31;;;;;;;2.63;2.30;;;16.80;1.00;;;;;;5013243;28;20241;-83
2023/09/24 09:37:16;;;;;;;2.87;2.40;;;17.00;99.90;;;;;;5013255;28;20174;-82
2023/09/24 09:39:42;;;;;;;3.07;2.27;;;17.00;1.00;;;;;;5012724;28;20322;-84
2023/09/24 09:42:10;;;;;;;4.07;2.10;;;17.00;1.00;;;;;;5014014;28;20199;-81
2023/09/24 09:44:37;;;;;;;5.17;2.53;;;17.10;1.00;;;;;;5014415;28;20167;-83
2023/09/24 09:47:07;;;;;;;8.23;2.97;;;17.10;99.90;;;;;;5014299;28;20619;-83
2023/09/24 09:49:34;;;;;;;2.93;2.10;;;17.30;99.90;;;;;;5013544;28;20197;-82
2023/09/24 09:52:02;;;;;;;4.27;2.40;;;17.40;1.00;;;;;;5013110;28;20210;-81
2023/09/24 09:54:34;;;;;;;8.20;3.87;;;17.50;1.00;;;;;;5013694;28;20210;-83
2023/09/24 09:57:02;;;;;;;16.73;5.27;;;17.80;1.00;;;;;;5012544;28;20587;-83
2023/09/24 09:59:28;;;;;;;3.00;1.97;;;18.00;1.00;;;;;;5013577;28;20214;-83
2023/09/24 10:01:54;;;;;;;15.37;4.40;;;18.20;99.90;;;;;;5012280;28;20214;-82
2023/09/24 10:04:22;;;;;;;3.80;2.23;;;18.50;1.00;;;;;;5012329;28;20186;-82
2023/09/24 10:06:48;;;;;;;3.23;2.33;;;18.70;32.20;;;;;;5012276;28;20224;-82
2023/09/24 10:09:26;;;;;;;3.20;2.00;;;18.80;1.00;;;;;;5013537;28;20269;-83
2023/09/24 10:11:52;;;;;;;2.07;1.73;;;18.70;1.00;;;;;;5013531;28;20182;-82
2023/09/24 10:14:42;;;;;;;3.23;2.30;;;18.50;1.00;;;;;;5013056;28;20225;-84
2023/09/24 10:17:34;;;;;;;3.13;1.93;;;18.50;1.00;;;;;;5014340;28;20198;-82
2023/09/24 10:20:06;;;;;;;2.13;1.70;;;18.60;99.90;;;;;;5011370;28;20261;-84
2023/09/24 10:22:34;;;;;;;1.83;1.40;;;18.70;1.00;;;;;;5013125;28;20181;-84
2023/09/24 10:25:21;;;;;;;1.87;1.30;;;18.60;1.00;;;;;;5011563;28;20670;-84
2023/09/24 10:28:04;;;;;;;1.50;1.33;;;18.50;1.00;;;;;;5013011;28;20206;-83
2023/09/24 10:31:04;;;;;;;2.03;1.30;;;19.00;99.90;;;;;;5013171;28;20182;-82
2023/09/24 10:34:02;;;;;;;2.40;1.23;;;19.30;1.00;;;;;;5012920;28;20175;-84
2023/09/24 10:36:29;;;;;;;1.40;0.90;;;19.30;1.00;;;;;;5013420;28;20181;-82
2023/09/24 10:39:14;;;;;;;1.30;0.90;;;19.30;1.00;;;;;;5013120;28;20214;-83
2023/09/24 10:42:18;;;;;;;2.42;1.30;;;19.50;99.90;;;;;;5013097;28;20230;-84
2023/09/24 10:44:44;;;;;;;1.52;1.00;;;19.50;47.80;;;;;;4971664;28;20250;-84
2023/09/24 10:47:26;;;;;;;3.40;1.50;;;19.50;96.20;;;;;;4971865;28;20192;-84
2023/09/24 10:50:04;;;;;;;2.20;1.48;;;19.70;1.00;;;;;;4995377;28;20560;-84
2023/09/24 10:52:55;;;;;;;1.50;1.20;;;19.80;99.90;;;;;;5012779;28;20167;-85
2023/09/24 10:55:33;;;;;;;1.42;1.20;;;19.90;99.90;;;;;;5012149;28;20752;-84
2023/09/24 10:58:03;;;;;;;1.83;1.17;;;20.10;1.00;;;;;;5012603;28;20202;-84
2023/09/24 11:00:30;;;;;;;1.15;1.00;;;20.20;1.00;;;;;;5014485;28;20167;-83
2023/09/24 11:03:00;;;;;;;1.63;1.40;;;20.40;99.90;;;;;;5013126;28;20171;-84
2023/09/24 11:05:27;;;;;;;1.35;1.25;;;20.40;1.00;;;;;;5014207;28;20171;-84
2023/09/24 11:07:54;;;;;;;1.30;1.20;;;20.10;1.00;;;;;;5015244;28;20586;-84
2023/09/24 11:10:25;;;;;;;1.52;1.33;;;20.30;1.00;;;;;;5013015;28;20178;-84
2023/09/24 11:12:56;;;;;;;1.83;1.10;;;20.50;1.00;;;;;;5011271;28;20270;-84
2023/09/24 11:15:24;;;;;;;2.30;1.10;;;20.70;1.00;;;;;;5012573;28;20285;-84
2023/09/24 11:17:50;;;;;;;2.35;1.10;;;20.80;1.00;;;;;;5011212;28;20195;-84
2023/09/24 11:20:20;;;;;;;1.83;1.40;;;21.00;1.00;;;;;;5011628;28;20202;-84
2023/09/24 11:22:58;;;;;;;1.63;1.20;;;20.80;1.00;;;;;;5011092;28;20225;-86
2023/09/24 11:25:24;;;;;;;1.55;1.20;;;20.70;1.00;;;;;;5011328;28;20265;-87
2023/09/24 11:27:56;;;;;;;2.40;1.27;;;20.70;1.00;;;;;;5010939;28;20230;-81
2023/09/24 11:30:26;;;;;;;3.03;1.45;;;20.90;1.00;;;;;;5012586;28;20179;-78
2023/09/24 11:32:52;;;;;;;1.65;1.10;;;20.90;1.00;;;;;;5011983;28;20170;-84
2023/09/24 11:35:25;;;;;;;1.67;1.10;;;21.00;1.00;;;;;;5012430;28;20257;-84
2023/09/24 11:38:01;;;;;;;1.60;1.17;;;21.30;1.00;;;;;;5014118;28;20194;-84
2023/09/24 11:40:27;;;;;;;1.40;1.30;;;21.30;1.00;;;;;;5015153;28;20238;-84
2023/09/24 11:43:00;;;;;;;1.00;1.00;;;21.10;1.00;;;;;;5016199;28;20270;-85
2023/09/24 11:45:49;;;;;;;1.80;1.27;;;21.30;1.00;;;;;;5014547;28;20171;-85
2023/09/24 11:48:21;;;;;;;2.17;1.08;;;21.50;1.00;;;;;;5008543;28;20553;-81
2023/09/24 11:51:02;;;;;;;1.85;1.48;;;21.90;1.00;;;;;;5014736;28;20237;-82
2023/09/24 11:53:28;;;;;;;1.77;1.10;;;21.80;1.00;;;;;;5015391;28;20179;-81
2023/09/24 11:55:59;;;;;;;2.38;1.20;;;21.60;1.00;;;;;;5014904;28;20199;-81
2023/09/24 11:58:26;;;;;;;3.40;1.20;;;21.80;1.00;;;;;;5015287;28;20272;-83
2023/09/24 12:00:57;;;;;;;1.40;1.10;;;22.10;1.00;;;;;;5015742;28;20505;-82
2023/09/24 12:03:23;;;;;;;3.10;1.23;;;22.20;1.00;;;;;;5015775;28;20175;-82
2023/09/24 12:05:51;;;;;;;1.77;1.35;;;22.20;1.00;;;;;;5016204;28;20189;-81
2023/09/24 12:08:16;;;;;;;2.03;1.20;;;22.30;1.00;;;;;;5016182;28;20190;-82
2023/09/24 12:10:50;;;;;;;1.45;1.08;;;22.20;99.90;;;;;;4997246;28;20180;-81
2023/09/24 12:13:17;;;;;;;1.15;1.00;;;22.30;1.00;;;;;;5007012;28;20183;-80
2023/09/24 12:15:44;;;;;;;3.13;1.38;;;22.10;99.90;;;;;;5015996;28;20237;-81
2023/09/24 12:18:10;;;;;;;2.05;1.15;;;21.90;99.90;;;;;;5014000;28;20191;-81
2023/09/24 12:20:37;;;;;;;1.55;0.98;;;22.00;99.90;;;;;;5015554;28;20182;-81
2023/09/24 12:23:06;;;;;;;1.92;1.20;;;22.30;99.90;;;;;;5015727;28;20210;-81
2023/09/24 12:25:34;;;;;;;1.20;1.10;;;22.30;99.90;;;;;;5015786;28;20180;-81
2023/09/24 12:28:00;;;;;;;3.00;1.33;;;22.40;99.90;;;;;;5015534;28;20222;-81
2023/09/24 12:30:26;;;;;;;3.97;1.40;;;22.60;99.90;;;;;;5016200;28;20643;-81
2023/09/24 12:32:52;;;;;;;1.80;1.20;;;22.70;99.90;;;;;;5014621;28;20179;-82
2023/09/24 12:35:18;;;;;;;2.55;1.20;;;22.60;99.90;;;;;;5009005;28;20206;-81
2023/09/24 12:37:43;;;;;;;2.30;1.20;;;23.10;99.90;;;;;;5015363;28;20175;-81
2023/09/24 12:40:10;;;;;;;1.35;1.10;;;23.60;99.90;;;;;;5015773;28;20183;-82
2023/09/24 12:42:41;;;;;;;1.30;1.08;;;23.60;99.90;;;;;;5015398;28;20275;-81
2023/09/24 12:45:08;;;;;;;1.65;1.08;;;23.80;99.90;;;;;;5014127;28;20179;-81
2023/09/24 12:47:35;;;;;;;1.55;1.08;;;24.20;99.90;;;;;;5015103;28;20179;-81
2023/09/24 12:50:03;;;;;;;1.15;0.95;;;23.50;99.90;;;;;;5012988;28;20262;-81
2023/09/24 12:52:47;;;;;;;1.58;1.17;;;23.10;99.90;;;;;;5015444;28;20175;-81
2023/09/24 12:55:16;;;;;;;1.42;1.10;;;23.00;99.90;;;;;;5015008;28;20290;-80
2023/09/24 12:57:44;;;;;;;1.10;0.88;;;23.00;99.90;;;;;;5015170;28;20179;-80